Terminal Aerodrome Forecast
Issued by NWS Quad Cities IA IL

Home | Current Version | Previous Version | Text Only | Print | Product List | Glossary On
Versions: 1 2 3 4 5 6 7 8 9 10 11 12 13 14 15 16 17 18 19 20 21 22 23 24 25 26
000
FTUS43 KDVN 280500
TAFDBQ
TAF
KDBQ 280539Z 2806/2906 16008KT 5SM BR OVC009
     FM281100 16012KT 6SM BR OVC010
     FM281400 16014G21KT P6SM OVC015
     FM281800 16017G25KT P6SM BKN030
     FM290100 15012KT 5SM BR OVC018=

USA.gov is the U.S. government's official web portal to all federal, state and local government web resources and services.